Terminal Aerodrome Forecast
Issued by NWS Honolulu, HI

Home | Current Version | Previous Version | Text Only | Print | Product List | Glossary On
Versions: 1 2 3 4 5 6 7 8 9 10 11 12 13 14 15 16 17 18 19 20 21 22 23 24 25 26 27 28 29
000
FTPA31 PHFO 211135
TAFHNL
TAF
PHNL 211135Z 2112/2218 35005KT P6SM FEW030 SCT100 BKN200
     FM212000 10006KT P6SM SCT025 SCT050 SCT200
     FM220400 05005KT P6SM FEW025 SCT050 SCT200
     FM221000 35005KT P6SM FEW025 SCT050 SCT200=

USA.gov is the U.S. government's official web portal to all federal, state and local government web resources and services.